Terminal Aerodrome Forecast
Issued by NWS Omaha/Valley, NE

Home | Current Version | Previous Version | Text Only | Print | Product List | Glossary On
Versions: 1 2 3 4 5 6 7 8 9 10 11 12 13 14 15 16 17 18 19 20 21 22 23 24 25 26 27 28 29 30 31 32 33 34 35 36 37 38 39 40 41 42
000
FTUS43 KOAX 140959 AAA
TAFOFK
TAF AMD
KOFK 140959Z 1410/1506 17014G22KT P6SM OVC025
      TEMPO 1410/1412 1SM -SN BKN010
     FM141200 25009KT P6SM OVC025
     FM141500 30010KT P6SM BKN050
     FM142200 VRB05KT P6SM BKN080=

USA.gov is the U.S. government's official web portal to all federal, state and local government web resources and services.